In Rescue
 
Open Full Screen Window  High Contrast Mode
Wind Gusting 22 knots
15
May 13, 2021 10:52 AM CDT
Weather Information
Wind Direction
  190 °
Wind Speed
  15 kt (17 mph)
Wind Gust
  22 kt (25 mph)
Altimeter
30.30 in
Visibility
10 SM
Temperature
19° C
66° F
Dewpoint
03° C
37° F
Humidity
35%
1hr Rain Fall
00.00 in.
24hr Rain Fall
00.00 in.
Sky Condition
Overcast @ 9,000 ft
VFR

METAR KGDB 131552Z AUTO 19015G22KT 10SM OVC090 19/03 A3030 RMK AO2 T01900027

FAA Disclaimer: The data displayed is for advisory purposes only and is not to be used for flight planning or operations.